sensor_id;sensor_type;location;lat;lon;timestamp;P1;durP1;ratioP1;P2;durP2;ratioP2
47812;SDS011;34221;45.296;9.516;2023-08-31T00:00:14;5.82;;;2.78;;
47812;SDS011;34221;45.296;9.516;2023-08-31T00:00:30;3.67;;;2.70;;
47812;SDS011;34221;45.296;9.516;2023-08-31T00:00:47;3.45;;;2.70;;
47812;SDS011;34221;45.296;9.516;2023-08-31T00:01:02;3.78;;;2.60;;
47812;SDS011;34221;45.296;9.516;2023-08-31T00:01:18;3.85;;;2.67;;
47812;SDS011;34221;45.296;9.516;2023-08-31T00:01:33;4.17;;;3.10;;
47812;SDS011;34221;45.296;9.516;2023-08-31T00:01:47;3.97;;;2.95;;
47812;SDS011;34221;45.296;9.516;2023-08-31T00:02:02;3.50;;;2.55;;
47812;SDS011;34221;45.296;9.516;2023-08-31T00:02:18;3.25;;;2.33;;
47812;SDS011;34221;45.296;9.516;2023-08-31T00:02:33;3.45;;;2.42;;
47812;SDS011;34221;45.296;9.516;2023-08-31T00:02:48;3.97;;;2.78;;
47812;SDS011;34221;45.296;9.516;2023-08-31T00:03:03;4.63;;;2.90;;
47812;SDS011;34221;45.296;9.516;2023-08-31T00:03:19;4.38;;;2.90;;
47812;SDS011;34221;45.296;9.516;2023-08-31T00:03:34;4.20;;;2.80;;
47812;SDS011;34221;45.296;9.516;2023-08-31T00:03:49;4.63;;;2.80;;
47812;SDS011;34221;45.296;9.516;2023-08-31T00:04:04;4.28;;;2.83;;
47812;SDS011;34221;45.296;9.516;2023-08-31T00:04:22;4.57;;;2.60;;
47812;SDS011;34221;45.296;9.516;2023-08-31T00:04:56;4.57;;;2.75;;
47812;SDS011;34221;45.296;9.516;2023-08-31T00:05:12;4.32;;;2.88;;
47812;SDS011;34221;45.296;9.516;2023-08-31T00:05:27;4.50;;;2.72;;
47812;SDS011;34221;45.296;9.516;2023-08-31T00:05:43;4.20;;;2.65;;
47812;SDS011;34221;45.296;9.516;2023-08-31T00:06:00;3.88;;;2.70;;
47812;SDS011;34221;45.296;9.516;2023-08-31T00:06:18;3.75;;;2.40;;
47812;SDS011;34221;45.296;9.516;2023-08-31T00:06:32;4.65;;;2.60;;
47812;SDS011;34221;45.296;9.516;2023-08-31T00:06:48;5.00;;;2.70;;
47812;SDS011;34221;45.296;9.516;2023-08-31T00:07:03;4.25;;;2.70;;
47812;SDS011;34221;45.296;9.516;2023-08-31T00:07:18;4.20;;;2.70;;
47812;SDS011;34221;45.296;9.516;2023-08-31T00:07:33;4.65;;;2.75;;
47812;SDS011;34221;45.296;9.516;2023-08-31T00:07:48;4.40;;;2.90;;
47812;SDS011;34221;45.296;9.516;2023-08-31T00:08:03;3.80;;;2.70;;
47812;SDS011;34221;45.296;9.516;2023-08-31T00:08:18;3.90;;;2.67;;
47812;SDS011;34221;45.296;9.516;2023-08-31T00:08:33;3.90;;;2.72;;
47812;SDS011;34221;45.296;9.516;2023-08-31T00:08:48;3.80;;;2.63;;
47812;SDS011;34221;45.296;9.516;2023-08-31T00:09:03;3.67;;;2.60;;
47812;SDS011;34221;45.296;9.516;2023-08-31T00:09:20;3.72;;;2.60;;
47812;SDS011;34221;45.296;9.516;2023-08-31T00:09:35;4.60;;;2.83;;
47812;SDS011;34221;45.296;9.516;2023-08-31T00:09:50;5.00;;;3.03;;
47812;SDS011;34221;45.296;9.516;2023-08-31T00:10:05;4.35;;;2.90;;
47812;SDS011;34221;45.296;9.516;2023-08-31T00:10:23;5.05;;;3.05;;
47812;SDS011;34221;45.296;9.516;2023-08-31T00:10:38;5.10;;;2.92;;
47812;SDS011;34221;45.296;9.516;2023-08-31T00:10:54;5.22;;;3.38;;
47812;SDS011;34221;45.296;9.516;2023-08-31T00:11:14;5.03;;;3.28;;
47812;SDS011;34221;45.296;9.516;2023-08-31T00:11:29;5.60;;;3.35;;
47812;SDS011;34221;45.296;9.516;2023-08-31T00:11:44;7.93;;;3.70;;
47812;SDS011;34221;45.296;9.516;2023-08-31T00:12:00;7.93;;;3.57;;
47812;SDS011;34221;45.296;9.516;2023-08-31T00:12:16;4.72;;;3.05;;
47812;SDS011;34221;45.296;9.516;2023-08-31T00:12:31;4.50;;;2.97;;
47812;SDS011;34221;45.296;9.516;2023-08-31T00:12:46;4.45;;;2.95;;
47812;SDS011;34221;45.296;9.516;2023-08-31T00:13:02;4.60;;;3.10;;
47812;SDS011;34221;45.296;9.516;2023-08-31T00:13:18;4.18;;;2.90;;
47812;SDS011;34221;45.296;9.516;2023-08-31T00:13:33;4.15;;;2.83;;
47812;SDS011;34221;45.296;9.516;2023-08-31T00:13:48;4.35;;;2.85;;
47812;SDS011;34221;45.296;9.516;2023-08-31T00:14:03;3.95;;;2.67;;
47812;SDS011;34221;45.296;9.516;2023-08-31T00:14:18;3.85;;;2.60;;
47812;SDS011;34221;45.296;9.516;2023-08-31T00:14:33;4.65;;;2.85;;
47812;SDS011;34221;45.296;9.516;2023-08-31T00:14:49;4.90;;;3.00;;
47812;SDS011;34221;45.296;9.516;2023-08-31T00:15:04;4.32;;;2.83;;
47812;SDS011;34221;45.296;9.516;2023-08-31T00:15:20;5.03;;;2.80;;
47812;SDS011;34221;45.296;9.516;2023-08-31T00:15:40;4.70;;;2.60;;
47812;SDS011;34221;45.296;9.516;2023-08-31T00:15:57;4.85;;;2.70;;
47812;SDS011;34221;45.296;9.516;2023-08-31T00:16:12;6.22;;;3.10;;
47812;SDS011;34221;45.296;9.516;2023-08-31T00:16:27;5.78;;;3.22;;
47812;SDS011;34221;45.296;9.516;2023-08-31T00:16:43;5.35;;;3.25;;
47812;SDS011;34221;45.296;9.516;2023-08-31T00:17:01;4.93;;;3.10;;
47812;SDS011;34221;45.296;9.516;2023-08-31T00:17:17;5.13;;;2.90;;
47812;SDS011;34221;45.296;9.516;2023-08-31T00:17:32;5.05;;;3.00;;
47812;SDS011;34221;45.296;9.516;2023-08-31T00:17:47;4.32;;;3.05;;
47812;SDS011;34221;45.296;9.516;2023-08-31T00:18:03;3.80;;;2.80;;
47812;SDS011;34221;45.296;9.516;2023-08-31T00:18:18;4.60;;;2.97;;
47812;SDS011;34221;45.296;9.516;2023-08-31T00:18:35;5.82;;;3.20;;
47812;SDS011;34221;45.296;9.516;2023-08-31T00:18:53;6.28;;;3.28;;
47812;SDS011;34221;45.296;9.516;2023-08-31T00:19:08;5.63;;;3.30;;
47812;SDS011;34221;45.296;9.516;2023-08-31T00:19:23;5.15;;;3.00;;
47812;SDS011;34221;45.296;9.516;2023-08-31T00:19:39;5.18;;;3.05;;
47812;SDS011;34221;45.296;9.516;2023-08-31T00:19:54;4.97;;;3.30;;
47812;SDS011;34221;45.296;9.516;2023-08-31T00:20:09;5.53;;;3.40;;
47812;SDS011;34221;45.296;9.516;2023-08-31T00:20:26;5.23;;;3.23;;
47812;SDS011;34221;45.296;9.516;2023-08-31T00:20:41;4.97;;;3.15;;
47812;SDS011;34221;45.296;9.516;2023-08-31T00:20:56;4.90;;;3.10;;
47812;SDS011;34221;45.296;9.516;2023-08-31T00:21:12;4.18;;;2.83;;
47812;SDS011;34221;45.296;9.516;2023-08-31T00:21:27;5.00;;;2.85;;
47812;SDS011;34221;45.296;9.516;2023-08-31T00:21:42;5.10;;;3.17;;
47812;SDS011;34221;45.296;9.516;2023-08-31T00:21:57;4.57;;;3.13;;
47812;SDS011;34221;45.296;9.516;2023-08-31T00:22:12;4.60;;;3.10;;
47812;SDS011;34221;45.296;9.516;2023-08-31T00:22:27;4.10;;;3.00;;
47812;SDS011;34221;45.296;9.516;2023-08-31T00:22:42;3.63;;;2.60;;
47812;SDS011;34221;45.296;9.516;2023-08-31T00:22:57;3.80;;;2.50;;
47812;SDS011;34221;45.296;9.516;2023-08-31T00:23:12;4.07;;;2.75;;
47812;SDS011;34221;45.296;9.516;2023-08-31T00:23:28;4.25;;;2.83;;
47812;SDS011;34221;45.296;9.516;2023-08-31T00:23:43;3.90;;;2.60;;
47812;SDS011;34221;45.296;9.516;2023-08-31T00:23:58;3.75;;;2.53;;
47812;SDS011;34221;45.296;9.516;2023-08-31T00:24:13;4.30;;;2.70;;
47812;SDS011;34221;45.296;9.516;2023-08-31T00:24:29;4.20;;;2.67;;
47812;SDS011;34221;45.296;9.516;2023-08-31T00:24:44;4.18;;;2.75;;
47812;SDS011;34221;45.296;9.516;2023-08-31T00:25:32;3.72;;;2.80;;
47812;SDS011;34221;45.296;9.516;2023-08-31T00:25:47;3.95;;;2.95;;
47812;SDS011;34221;45.296;9.516;2023-08-31T00:26:02;4.05;;;3.10;;
47812;SDS011;34221;45.296;9.516;2023-08-31T00:26:17;4.03;;;2.80;;
47812;SDS011;34221;45.296;9.516;2023-08-31T00:26:36;4.45;;;2.75;;
47812;SDS011;34221;45.296;9.516;2023-08-31T00:26:56;4.85;;;2.85;;
47812;SDS011;34221;45.296;9.516;2023-08-31T00:27:11;4.82;;;3.03;;
47812;SDS011;34221;45.296;9.516;2023-08-31T00:27:31;3.70;;;2.40;;
47812;SDS011;34221;45.296;9.516;2023-08-31T00:27:46;4.68;;;2.58;;
47812;SDS011;34221;45.296;9.516;2023-08-31T00:28:02;6.45;;;3.05;;
47812;SDS011;34221;45.296;9.516;2023-08-31T00:28:19;5.57;;;3.00;;
47812;SDS011;34221;45.296;9.516;2023-08-31T00:28:34;4.05;;;2.67;;
47812;SDS011;34221;45.296;9.516;2023-08-31T00:28:49;3.95;;;2.53;;
47812;SDS011;34221;45.296;9.516;2023-08-31T00:29:04;4.47;;;2.65;;
47812;SDS011;34221;45.296;9.516;2023-08-31T00:29:19;5.18;;;2.88;;
47812;SDS011;34221;45.296;9.516;2023-08-31T00:29:35;4.03;;;2.80;;
47812;SDS011;34221;45.296;9.516;2023-08-31T00:29:51;3.75;;;2.63;;
47812;SDS011;34221;45.296;9.516;2023-08-31T00:30:06;4.45;;;2.83;;
47812;SDS011;34221;45.296;9.516;2023-08-31T00:30:23;4.07;;;2.63;;
47812;SDS011;34221;45.296;9.516;2023-08-31T00:30:43;4.57;;;2.63;;
47812;SDS011;34221;45.296;9.516;2023-08-31T00:31:03;4.30;;;2.80;;
47812;SDS011;34221;45.296;9.516;2023-08-31T00:31:17;4.20;;;2.92;;
47812;SDS011;34221;45.296;9.516;2023-08-31T00:31:32;4.88;;;2.92;;
47812;SDS011;34221;45.296;9.516;2023-08-31T00:31:48;4.63;;;2.80;;
47812;SDS011;34221;45.296;9.516;2023-08-31T00:32:05;4.18;;;2.83;;
47812;SDS011;34221;45.296;9.516;2023-08-31T00:32:20;4.93;;;3.05;;
47812;SDS011;34221;45.296;9.516;2023-08-31T00:32:36;5.35;;;3.10;;
47812;SDS011;34221;45.296;9.516;2023-08-31T00:32:53;4.53;;;2.65;;
47812;SDS011;34221;45.296;9.516;2023-08-31T00:33:09;4.32;;;2.58;;
47812;SDS011;34221;45.296;9.516;2023-08-31T00:33:25;3.85;;;2.70;;
47812;SDS011;34221;45.296;9.516;2023-08-31T00:33:41;3.55;;;2.70;;
47812;SDS011;34221;45.296;9.516;2023-08-31T00:33:55;4.43;;;3.08;;
47812;SDS011;34221;45.296;9.516;2023-08-31T00:34:10;4.57;;;3.10;;
47812;SDS011;34221;45.296;9.516;2023-08-31T00:34:29;4.25;;;2.60;;
47812;SDS011;34221;45.296;9.516;2023-08-31T00:34:44;3.95;;;2.47;;
47812;SDS011;34221;45.296;9.516;2023-08-31T00:34:59;3.70;;;2.53;;
47812;SDS011;34221;45.296;9.516;2023-08-31T00:35:14;4.40;;;2.80;;
47812;SDS011;34221;45.296;9.516;2023-08-31T00:35:29;4.88;;;3.00;;
47812;SDS011;34221;45.296;9.516;2023-08-31T00:35:45;4.47;;;2.97;;
47812;SDS011;34221;45.296;9.516;2023-08-31T00:36:00;4.35;;;2.92;;
47812;SDS011;34221;45.296;9.516;2023-08-31T00:36:17;4.55;;;3.03;;
47812;SDS011;34221;45.296;9.516;2023-08-31T00:36:32;5.60;;;3.20;;
47812;SDS011;34221;45.296;9.516;2023-08-31T00:36:48;6.10;;;3.28;;
47812;SDS011;34221;45.296;9.516;2023-08-31T00:37:03;5.20;;;3.10;;
47812;SDS011;34221;45.296;9.516;2023-08-31T00:37:19;4.28;;;2.83;;
47812;SDS011;34221;45.296;9.516;2023-08-31T00:37:35;5.75;;;2.85;;
47812;SDS011;34221;45.296;9.516;2023-08-31T00:37:50;6.07;;;2.90;;
47812;SDS011;34221;45.296;9.516;2023-08-31T00:38:05;4.72;;;3.00;;
47812;SDS011;34221;45.296;9.516;2023-08-31T00:38:20;4.68;;;3.17;;
47812;SDS011;34221;45.296;9.516;2023-08-31T00:38:35;4.40;;;3.05;;
47812;SDS011;34221;45.296;9.516;2023-08-31T00:38:50;5.40;;;3.38;;
47812;SDS011;34221;45.296;9.516;2023-08-31T00:39:05;5.60;;;3.23;;
47812;SDS011;34221;45.296;9.516;2023-08-31T00:39:21;5.13;;;2.70;;
47812;SDS011;34221;45.296;9.516;2023-08-31T00:39:36;5.25;;;3.10;;
47812;SDS011;34221;45.296;9.516;2023-08-31T00:39:51;4.88;;;3.45;;
47812;SDS011;34221;45.296;9.516;2023-08-31T00:40:06;5.07;;;3.13;;
47812;SDS011;34221;45.296;9.516;2023-08-31T00:40:27;4.95;;;3.08;;
47812;SDS011;34221;45.296;9.516;2023-08-31T00:40:43;5.55;;;3.20;;
47812;SDS011;34221;45.296;9.516;2023-08-31T00:41:01;4.70;;;2.92;;
47812;SDS011;34221;45.296;9.516;2023-08-31T00:41:18;4.90;;;2.85;;
47812;SDS011;34221;45.296;9.516;2023-08-31T00:41:32;4.82;;;2.80;;
47812;SDS011;34221;45.296;9.516;2023-08-31T00:41:47;4.20;;;2.70;;
47812;SDS011;34221;45.296;9.516;2023-08-31T00:42:04;4.30;;;2.95;;
47812;SDS011;34221;45.296;9.516;2023-08-31T00:42:20;4.63;;;3.10;;
47812;SDS011;34221;45.296;9.516;2023-08-31T00:42:36;5.05;;;3.15;;
47812;SDS011;34221;45.296;9.516;2023-08-31T00:42:51;4.97;;;3.40;;
47812;SDS011;34221;45.296;9.516;2023-08-31T00:43:06;5.20;;;3.33;;
47812;SDS011;34221;45.296;9.516;2023-08-31T00:43:21;5.85;;;3.13;;
47812;SDS011;34221;45.296;9.516;2023-08-31T00:43:37;5.43;;;2.95;;
47812;SDS011;34221;45.296;9.516;2023-08-31T00:43:52;5.05;;;3.03;;
47812;SDS011;34221;45.296;9.516;2023-08-31T00:44:07;5.50;;;3.05;;
47812;SDS011;34221;45.296;9.516;2023-08-31T00:44:22;5.15;;;3.00;;
47812;SDS011;34221;45.296;9.516;2023-08-31T00:44:38;5.00;;;3.38;;
47812;SDS011;34221;45.296;9.516;2023-08-31T00:44:53;5.35;;;3.45;;
47812;SDS011;34221;45.296;9.516;2023-08-31T00:45:08;5.38;;;3.13;;
47812;SDS011;34221;45.296;9.516;2023-08-31T00:45:24;7.30;;;3.20;;
47812;SDS011;34221;45.296;9.516;2023-08-31T00:45:42;5.40;;;3.28;;
47812;SDS011;34221;45.296;9.516;2023-08-31T00:45:58;5.18;;;3.30;;
47812;SDS011;34221;45.296;9.516;2023-08-31T00:46:13;5.40;;;3.15;;
47812;SDS011;34221;45.296;9.516;2023-08-31T00:46:29;4.93;;;2.90;;
47812;SDS011;34221;45.296;9.516;2023-08-31T00:46:45;5.00;;;3.08;;
47812;SDS011;34221;45.296;9.516;2023-08-31T00:47:00;4.82;;;3.20;;
47812;SDS011;34221;45.296;9.516;2023-08-31T00:47:16;4.18;;;2.75;;
47812;SDS011;34221;45.296;9.516;2023-08-31T00:47:31;4.30;;;2.85;;
47812;SDS011;34221;45.296;9.516;2023-08-31T00:47:48;4.65;;;2.95;;
47812;SDS011;34221;45.296;9.516;2023-08-31T00:48:04;4.68;;;3.10;;
47812;SDS011;34221;45.296;9.516;2023-08-31T00:48:20;4.60;;;3.10;;
47812;SDS011;34221;45.296;9.516;2023-08-31T00:48:35;4.53;;;3.00;;
47812;SDS011;34221;45.296;9.516;2023-08-31T00:48:50;4.28;;;2.97;;
47812;SDS011;34221;45.296;9.516;2023-08-31T00:49:04;4.53;;;3.17;;
47812;SDS011;34221;45.296;9.516;2023-08-31T00:49:19;4.63;;;3.13;;
47812;SDS011;34221;45.296;9.516;2023-08-31T00:49:34;4.18;;;2.90;;
47812;SDS011;34221;45.296;9.516;2023-08-31T00:49:50;4.10;;;2.97;;
47812;SDS011;34221;45.296;9.516;2023-08-31T00:50:06;4.68;;;3.13;;
47812;SDS011;34221;45.296;9.516;2023-08-31T00:50:22;5.82;;;3.40;;
47812;SDS011;34221;45.296;9.516;2023-08-31T00:50:37;5.78;;;3.20;;
47812;SDS011;34221;45.296;9.516;2023-08-31T00:50:52;5.18;;;3.00;;
47812;SDS011;34221;45.296;9.516;2023-08-31T00:51:08;5.63;;;3.10;;
47812;SDS011;34221;45.296;9.516;2023-08-31T00:51:25;5.57;;;3.10;;
47812;SDS011;34221;45.296;9.516;2023-08-31T00:51:40;4.15;;;2.90;;
47812;SDS011;34221;45.296;9.516;2023-08-31T00:51:55;4.45;;;2.90;;
47812;SDS011;34221;45.296;9.516;2023-08-31T00:52:11;5.18;;;3.10;;
47812;SDS011;34221;45.296;9.516;2023-08-31T00:52:26;4.95;;;3.10;;
47812;SDS011;34221;45.296;9.516;2023-08-31T00:52:44;4.53;;;2.90;;
47812;SDS011;34221;45.296;9.516;2023-08-31T00:52:59;4.20;;;2.63;;
47812;SDS011;34221;45.296;9.516;2023-08-31T00:53:14;3.67;;;2.72;;
47812;SDS011;34221;45.296;9.516;2023-08-31T00:53:30;4.68;;;3.15;;
47812;SDS011;34221;45.296;9.516;2023-08-31T00:53:48;5.00;;;3.03;;
47812;SDS011;34221;45.296;9.516;2023-08-31T00:54:09;5.47;;;3.10;;
47812;SDS011;34221;45.296;9.516;2023-08-31T00:54:24;4.43;;;3.13;;
47812;SDS011;34221;45.296;9.516;2023-08-31T00:54:39;4.60;;;3.00;;
47812;SDS011;34221;45.296;9.516;2023-08-31T00:54:56;4.47;;;2.83;;
47812;SDS011;34221;45.296;9.516;2023-08-31T00:55:12;5.35;;;2.92;;
47812;SDS011;34221;45.296;9.516;2023-08-31T00:55:27;5.70;;;2.85;;
47812;SDS011;34221;45.296;9.516;2023-08-31T00:55:45;4.82;;;2.85;;
47812;SDS011;34221;45.296;9.516;2023-08-31T00:56:00;3.70;;;2.75;;
47812;SDS011;34221;45.296;9.516;2023-08-31T00:56:16;3.95;;;2.97;;
47812;SDS011;34221;45.296;9.516;2023-08-31T00:56:32;4.60;;;3.05;;
47812;SDS011;34221;45.296;9.516;2023-08-31T00:56:51;4.72;;;3.03;;
47812;SDS011;34221;45.296;9.516;2023-08-31T00:57:10;4.63;;;2.92;;
47812;SDS011;34221;45.296;9.516;2023-08-31T00:57:26;4.97;;;2.80;;
47812;SDS011;34221;45.296;9.516;2023-08-31T00:57:41;4.60;;;2.70;;
47812;SDS011;34221;45.296;9.516;2023-08-31T00:57:56;4.22;;;2.80;;
47812;SDS011;34221;45.296;9.516;2023-08-31T00:58:14;4.55;;;2.92;;
47812;SDS011;34221;45.296;9.516;2023-08-31T00:58:29;4.03;;;2.53;;
47812;SDS011;34221;45.296;9.516;2023-08-31T00:58:44;4.38;;;2.50;;
47812;SDS011;34221;45.296;9.516;2023-08-31T00:59:00;5.25;;;2.75;;
47812;SDS011;34221;45.296;9.516;2023-08-31T00:59:15;4.72;;;2.58;;
47812;SDS011;34221;45.296;9.516;2023-08-31T00:59:30;4.10;;;2.58;;
47812;SDS011;34221;45.296;9.516;2023-08-31T00:59:45;4.55;;;2.60;;
47812;SDS011;34221;45.296;9.516;2023-08-31T01:00:01;4.53;;;2.72;;
47812;SDS011;34221;45.296;9.516;2023-08-31T01:00:20;4.10;;;2.80;;
47812;SDS011;34221;45.296;9.516;2023-08-31T01:01:32;5.20;;;3.05;;
47812;SDS011;34221;45.296;9.516;2023-08-31T01:03:09;4.90;;;2.85;;
47812;SDS011;34221;45.296;9.516;2023-08-31T01:03:49;5.75;;;3.00;;
47812;SDS011;34221;45.296;9.516;2023-08-31T01:05:03;5.53;;;2.88;;
47812;SDS011;34221;45.296;9.516;2023-08-31T01:05:34;4.55;;;2.80;;
47812;SDS011;34221;45.296;9.516;2023-08-31T01:07:12;4.78;;;2.90;;
47812;SDS011;34221;45.296;9.516;2023-08-31T01:07:39;3.85;;;2.70;;
47812;SDS011;34221;45.296;9.516;2023-08-31T01:11:34;5.43;;;2.90;;
47812;SDS011;34221;45.296;9.516;2023-08-31T01:11:45;5.05;;;2.72;;
47812;SDS011;34221;45.296;9.516;2023-08-31T01:12:34;4.38;;;2.72;;
47812;SDS011;34221;45.296;9.516;2023-08-31T01:13:14;3.85;;;2.45;;
47812;SDS011;34221;45.296;9.516;2023-08-31T01:13:34;4.55;;;2.88;;
47812;SDS011;34221;45.296;9.516;2023-08-31T01:13:51;5.68;;;2.75;;
47812;SDS011;34221;45.296;9.516;2023-08-31T01:14:18;5.47;;;3.25;;
47812;SDS011;34221;45.296;9.516;2023-08-31T01:14:56;4.28;;;2.78;;
47812;SDS011;34221;45.296;9.516;2023-08-31T01:15:19;7.70;;;3.08;;
47812;SDS011;34221;45.296;9.516;2023-08-31T01:15:34;4.80;;;2.88;;
47812;SDS011;34221;45.296;9.516;2023-08-31T01:15:52;4.97;;;2.92;;
47812;SDS011;34221;45.296;9.516;2023-08-31T01:16:10;4.32;;;3.05;;
47812;SDS011;34221;45.296;9.516;2023-08-31T01:16:27;4.22;;;2.80;;
47812;SDS011;34221;45.296;9.516;2023-08-31T01:16:45;4.18;;;2.67;;
47812;SDS011;34221;45.296;9.516;2023-08-31T01:17:03;4.40;;;3.05;;
47812;SDS011;34221;45.296;9.516;2023-08-31T01:17:19;4.45;;;2.97;;
47812;SDS011;34221;45.296;9.516;2023-08-31T01:17:49;4.43;;;2.92;;
47812;SDS011;34221;45.296;9.516;2023-08-31T01:18:08;4.68;;;2.80;;
47812;SDS011;34221;45.296;9.516;2023-08-31T01:18:27;4.43;;;2.63;;
47812;SDS011;34221;45.296;9.516;2023-08-31T01:18:45;5.13;;;2.72;;
47812;SDS011;34221;45.296;9.516;2023-08-31T01:19:03;4.68;;;2.78;;
47812;SDS011;34221;45.296;9.516;2023-08-31T01:19:39;4.78;;;2.95;;
47812;SDS011;34221;45.296;9.516;2023-08-31T01:19:59;3.85;;;2.40;;
47812;SDS011;34221;45.296;9.516;2023-08-31T01:20:26;3.67;;;2.55;;
47812;SDS011;34221;45.296;9.516;2023-08-31T01:21:20;4.32;;;2.75;;
47812;SDS011;34221;45.296;9.516;2023-08-31T01:21:42;5.05;;;2.70;;
47812;SDS011;34221;45.296;9.516;2023-08-31T01:22:03;3.88;;;2.75;;
47812;SDS011;34221;45.296;9.516;2023-08-31T01:22:30;4.28;;;2.60;;
47812;SDS011;34221;45.296;9.516;2023-08-31T01:23:07;5.40;;;2.88;;
47812;SDS011;34221;45.296;9.516;2023-08-31T01:24:07;5.07;;;2.60;;
47812;SDS011;34221;45.296;9.516;2023-08-31T01:24:23;4.88;;;2.42;;
47812;SDS011;34221;45.296;9.516;2023-08-31T01:24:39;4.25;;;2.65;;
47812;SDS011;34221;45.296;9.516;2023-08-31T01:24:55;4.60;;;2.80;;
47812;SDS011;34221;45.296;9.516;2023-08-31T01:25:12;4.72;;;2.35;;
47812;SDS011;34221;45.296;9.516;2023-08-31T01:25:27;4.88;;;2.50;;
47812;SDS011;34221;45.296;9.516;2023-08-31T01:25:45;5.20;;;2.42;;
47812;SDS011;34221;45.296;9.516;2023-08-31T01:26:03;5.20;;;2.58;;
47812;SDS011;34221;45.296;9.516;2023-08-31T01:26:19;4.95;;;2.80;;
47812;SDS011;34221;45.296;9.516;2023-08-31T01:26:38;4.20;;;2.70;;
47812;SDS011;34221;45.296;9.516;2023-08-31T01:26:55;4.60;;;2.60;;
47812;SDS011;34221;45.296;9.516;2023-08-31T01:27:10;4.55;;;2.53;;
47812;SDS011;34221;45.296;9.516;2023-08-31T01:27:27;4.15;;;2.78;;
47812;SDS011;34221;45.296;9.516;2023-08-31T01:27:42;3.50;;;2.42;;
47812;SDS011;34221;45.296;9.516;2023-08-31T01:28:01;3.80;;;2.45;;
47812;SDS011;34221;45.296;9.516;2023-08-31T01:28:16;4.18;;;2.47;;
47812;SDS011;34221;45.296;9.516;2023-08-31T01:28:31;3.97;;;2.35;;
47812;SDS011;34221;45.296;9.516;2023-08-31T01:28:50;3.95;;;2.40;;
47812;SDS011;34221;45.296;9.516;2023-08-31T01:29:06;4.22;;;2.67;;
47812;SDS011;34221;45.296;9.516;2023-08-31T01:29:21;4.43;;;2.60;;
47812;SDS011;34221;45.296;9.516;2023-08-31T01:29:36;5.05;;;2.60;;
47812;SDS011;34221;45.296;9.516;2023-08-31T01:29:51;5.10;;;2.70;;
47812;SDS011;34221;45.296;9.516;2023-08-31T01:30:09;4.00;;;2.80;;
47812;SDS011;34221;45.296;9.516;2023-08-31T01:30:24;3.47;;;2.50;;
47812;SDS011;34221;45.296;9.516;2023-08-31T01:30:39;4.28;;;2.38;;
47812;SDS011;34221;45.296;9.516;2023-08-31T01:30:54;4.60;;;2.50;;
47812;SDS011;34221;45.296;9.516;2023-08-31T01:31:09;4.65;;;2.58;;
47812;SDS011;34221;45.296;9.516;2023-08-31T01:31:24;5.63;;;2.70;;
47812;SDS011;34221;45.296;9.516;2023-08-31T01:31:42;4.97;;;2.60;;
47812;SDS011;34221;45.296;9.516;2023-08-31T01:31:59;4.07;;;2.35;;
47812;SDS011;34221;45.296;9.516;2023-08-31T01:32:14;4.07;;;2.28;;
47812;SDS011;34221;45.296;9.516;2023-08-31T01:32:29;3.95;;;2.42;;
47812;SDS011;34221;45.296;9.516;2023-08-31T01:32:45;5.22;;;2.63;;
47812;SDS011;34221;45.296;9.516;2023-08-31T01:33:03;4.28;;;2.50;;
47812;SDS011;34221;45.296;9.516;2023-08-31T01:33:18;4.00;;;2.58;;
47812;SDS011;34221;45.296;9.516;2023-08-31T01:33:33;3.67;;;2.45;;
47812;SDS011;34221;45.296;9.516;2023-08-31T01:33:49;3.80;;;2.50;;
47812;SDS011;34221;45.296;9.516;2023-08-31T01:34:04;4.55;;;2.78;;
47812;SDS011;34221;45.296;9.516;2023-08-31T01:34:20;4.75;;;2.80;;
47812;SDS011;34221;45.296;9.516;2023-08-31T01:34:34;4.13;;;2.60;;
47812;SDS011;34221;45.296;9.516;2023-08-31T01:34:50;4.97;;;2.50;;
47812;SDS011;34221;45.296;9.516;2023-08-31T01:35:06;6.00;;;2.55;;
47812;SDS011;34221;45.296;9.516;2023-08-31T01:35:22;4.97;;;2.63;;
47812;SDS011;34221;45.296;9.516;2023-08-31T01:35:42;4.00;;;2.40;;
47812;SDS011;34221;45.296;9.516;2023-08-31T01:36:03;4.68;;;2.40;;
47812;SDS011;34221;45.296;9.516;2023-08-31T01:36:28;4.07;;;2.67;;
47812;SDS011;34221;45.296;9.516;2023-08-31T01:36:52;3.93;;;2.63;;
47812;SDS011;34221;45.296;9.516;2023-08-31T01:37:16;3.25;;;2.45;;
47812;SDS011;34221;45.296;9.516;2023-08-31T01:37:43;4.50;;;2.50;;
47812;SDS011;34221;45.296;9.516;2023-08-31T01:38:04;4.03;;;2.50;;
47812;SDS011;34221;45.296;9.516;2023-08-31T01:38:25;4.43;;;2.33;;
47812;SDS011;34221;45.296;9.516;2023-08-31T01:38:45;4.68;;;2.80;;
47812;SDS011;34221;45.296;9.516;2023-08-31T01:39:35;5.35;;;3.00;;
47812;SDS011;34221;45.296;9.516;2023-08-31T01:40:09;5.78;;;2.88;;
47812;SDS011;34221;45.296;9.516;2023-08-31T01:41:12;5.10;;;2.80;;
47812;SDS011;34221;45.296;9.516;2023-08-31T01:41:33;4.90;;;2.50;;
47812;SDS011;34221;45.296;9.516;2023-08-31T01:41:51;4.57;;;2.58;;
47812;SDS011;34221;45.296;9.516;2023-08-31T01:42:13;5.03;;;3.10;;
47812;SDS011;34221;45.296;9.516;2023-08-31T01:42:31;4.78;;;2.92;;
47812;SDS011;34221;45.296;9.516;2023-08-31T01:42:46;4.20;;;2.60;;
47812;SDS011;34221;45.296;9.516;2023-08-31T01:43:03;4.68;;;2.58;;
47812;SDS011;34221;45.296;9.516;2023-08-31T01:43:21;5.25;;;2.80;;
47812;SDS011;34221;45.296;9.516;2023-08-31T01:43:37;4.75;;;2.70;;
47812;SDS011;34221;45.296;9.516;2023-08-31T01:43:55;4.10;;;2.35;;
47812;SDS011;34221;45.296;9.516;2023-08-31T01:44:12;4.18;;;2.58;;
47812;SDS011;34221;45.296;9.516;2023-08-31T01:44:32;4.18;;;2.50;;
47812;SDS011;34221;45.296;9.516;2023-08-31T01:44:49;3.92;;;2.30;;
47812;SDS011;34221;45.296;9.516;2023-08-31T01:45:05;3.67;;;2.30;;
47812;SDS011;34221;45.296;9.516;2023-08-31T01:45:22;3.88;;;2.38;;
47812;SDS011;34221;45.296;9.516;2023-08-31T01:45:38;4.37;;;2.47;;
47812;SDS011;34221;45.296;9.516;2023-08-31T01:45:54;5.43;;;2.70;;
47812;SDS011;34221;45.296;9.516;2023-08-31T01:46:10;5.60;;;2.70;;
47812;SDS011;34221;45.296;9.516;2023-08-31T01:46:25;4.82;;;2.80;;
47812;SDS011;34221;45.296;9.516;2023-08-31T01:46:41;4.68;;;2.75;;
47812;SDS011;34221;45.296;9.516;2023-08-31T01:47:02;4.78;;;2.60;;
47812;SDS011;34221;45.296;9.516;2023-08-31T01:47:22;3.15;;;2.30;;
47812;SDS011;34221;45.296;9.516;2023-08-31T01:47:37;3.92;;;2.60;;
47812;SDS011;34221;45.296;9.516;2023-08-31T01:47:52;4.63;;;3.13;;
47812;SDS011;34221;45.296;9.516;2023-08-31T01:48:07;4.20;;;3.00;;
47812;SDS011;34221;45.296;9.516;2023-08-31T01:48:24;3.88;;;2.60;;
47812;SDS011;34221;45.296;9.516;2023-08-31T01:48:40;3.70;;;2.30;;
47812;SDS011;34221;45.296;9.516;2023-08-31T01:48:55;3.47;;;2.22;;
47812;SDS011;34221;45.296;9.516;2023-08-31T01:49:11;3.72;;;2.45;;
47812;SDS011;34221;45.296;9.516;2023-08-31T01:49:26;3.88;;;2.60;;
47812;SDS011;34221;45.296;9.516;2023-08-31T01:49:41;4.28;;;2.85;;
47812;SDS011;34221;45.296;9.516;2023-08-31T01:49:57;4.57;;;2.67;;
47812;SDS011;34221;45.296;9.516;2023-08-31T01:50:12;5.15;;;2.45;;
47812;SDS011;34221;45.296;9.516;2023-08-31T01:50:28;5.30;;;2.55;;
47812;SDS011;34221;45.296;9.516;2023-08-31T01:50:42;4.60;;;2.50;;
47812;SDS011;34221;45.296;9.516;2023-08-31T01:50:58;4.60;;;2.30;;
47812;SDS011;34221;45.296;9.516;2023-08-31T01:51:15;4.20;;;2.20;;
47812;SDS011;34221;45.296;9.516;2023-08-31T01:51:31;3.72;;;2.45;;
47812;SDS011;34221;45.296;9.516;2023-08-31T01:51:47;4.25;;;2.55;;
47812;SDS011;34221;45.296;9.516;2023-08-31T01:52:02;4.07;;;2.38;;
47812;SDS011;34221;45.296;9.516;2023-08-31T01:52:18;4.60;;;2.55;;
47812;SDS011;34221;45.296;9.516;2023-08-31T01:52:33;5.20;;;2.60;;
47812;SDS011;34221;45.296;9.516;2023-08-31T01:52:48;4.25;;;2.42;;
47812;SDS011;34221;45.296;9.516;2023-08-31T01:53:03;3.78;;;2.30;;
47812;SDS011;34221;45.296;9.516;2023-08-31T01:53:21;4.25;;;2.78;;
47812;SDS011;34221;45.296;9.516;2023-08-31T01:53:37;4.05;;;2.90;;